Terminal Aerodrome Forecast
Issued by NWS Sterling, VA

Home | Current Version | Previous Version | Text Only | Print | Product List | Glossary On
Versions: 1 2 3 4 5 6 7 8 9 10 11 12 13 14 15 16 17 18 19 20 21
427
FTUS41 KLWX 230540
TAFIAD
TAF
KIAD 230540Z 2306/2412 13004KT P6SM BKN050
     FM231500 13010G17KT P6SM BKN150
     FM240300 13006KT P6SM BKN100
     FM240900 11007KT 6SM -RA OVC030=

USA.gov is the U.S. government's official web portal to all federal, state and local government web resources and services.